Time;durP1;ratioP1;P1;durP2;ratioP2;P2;SDS_P1;SDS_P2;PMS_P1;PMS_P2;Temp;Humidity;BMP_temperature;BMP_pressure;BME280_temperature;BME280_humidity;BME280_pressure;Samples;Min_cycle;Max_cycle;Signal;HPM_P1;HPM_P2
2023/10/05 00:03:10;;;;;;;9.70;7.60;;;;;;;10.72;100.00;98159.31;110151;1245;59750;-60
2023/10/05 00:05:44;;;;;;;9.90;6.70;;;;;;;10.72;100.00;98157.92;110182;1244;59698;-61
2023/10/05 00:08:18;;;;;;;9.30;6.30;;;;;;;10.73;100.00;98157.73;110179;1243;71357;-60
2023/10/05 00:10:51;;;;;;;9.70;7.10;;;;;;;10.73;100.00;98159.29;110194;1243;68609;-61
2023/10/05 00:13:23;;;;;;;12.10;7.00;;;;;;;10.75;100.00;98158.83;110228;1244;69345;-60
2023/10/05 00:15:57;;;;;;;9.50;7.00;;;;;;;10.77;100.00;98161.52;110164;1243;59724;-60
2023/10/05 00:18:27;;;;;;;8.60;5.60;;;;;;;10.78;100.00;98159.67;110127;1246;59746;-60
2023/10/05 00:21:00;;;;;;;9.80;7.00;;;;;;;10.80;100.00;98162.52;110133;1241;71312;-60
2023/10/05 00:23:31;;;;;;;9.50;7.00;;;;;;;10.82;100.00;98159.38;110145;1243;69918;-60
2023/10/05 00:26:05;;;;;;;9.00;7.10;;;;;;;10.85;100.00;98159.75;110181;1243;67618;-60
2023/10/05 00:31:44;;;;;;;9.30;6.90;;;;;;;10.85;100.00;98157.64;110146;1245;59692;-60
2023/10/05 00:36:59;;;;;;;13.50;9.80;;;;;;;10.78;100.00;98163.50;110129;1244;69817;-60
2023/10/05 00:39:30;;;;;;;11.30;7.80;;;;;;;10.71;100.00;98156.80;110134;1245;69102;-60
2023/10/05 00:44:42;;;;;;;10.20;6.70;;;;;;;10.63;100.00;98148.54;110169;1244;59680;-60
2023/10/05 00:47:16;;;;;;;9.80;7.00;;;;;;;10.60;100.00;98150.64;110162;1241;69467;-58
2023/10/05 00:52:25;;;;;;;12.40;8.40;;;;;;;10.51;100.00;98151.38;110165;1243;68944;-59
2023/10/05 00:55:11;;;;;;;11.60;7.30;;;;;;;10.41;100.00;98151.84;110140;1246;59692;-59
2023/10/05 00:57:44;;;;;;;9.70;7.00;;;;;;;10.32;100.00;98153.20;110183;1244;59799;-60
2023/10/05 01:00:29;;;;;;;9.00;7.40;;;;;;;10.25;100.00;98152.95;110117;1244;71541;-61
2023/10/05 01:03:20;;;;;;;9.80;6.70;;;;;;;10.17;100.00;98162.25;110156;1244;69299;-58
2023/10/05 01:07:00;;;;;;;9.70;7.20;;;;;;;10.13;100.00;98164.27;110127;1241;68958;-59
2023/10/05 01:08:59;;;;;;;10.50;8.10;;;;;;;10.07;100.00;98157.67;110059;1241;59760;-59
2023/10/05 01:11:43;;;;;;;11.90;9.00;;;;;;;10.01;100.00;98150.30;110156;1246;59818;-60
2023/10/05 01:14:16;;;;;;;9.40;6.60;;;;;;;9.98;100.00;98156.09;110170;1243;70626;-59
2023/10/05 01:16:58;;;;;;;7.70;5.70;;;;;;;9.95;100.00;98153.30;110146;1242;69307;-59
2023/10/05 01:19:30;;;;;;;7.60;6.30;;;;;;;9.94;100.00;98149.54;110141;1244;68507;-59
2023/10/05 01:22:06;;;;;;;8.40;6.40;;;;;;;9.91;100.00;98149.69;110127;1244;59720;-59
2023/10/05 01:24:38;;;;;;;8.40;6.30;;;;;;;9.89;100.00;98150.64;110160;1243;59695;-59
2023/10/05 01:27:11;;;;;;;11.00;7.90;;;;;;;9.86;100.00;98143.87;110148;1245;71219;-59
2023/10/05 01:29:41;;;;;;;13.20;8.30;;;;;;;9.83;100.00;98139.04;110137;1245;69420;-59
2023/10/05 01:32:16;;;;;;;8.90;7.10;;;;;;;9.80;100.00;98139.20;110144;1241;68378;-60
2023/10/05 01:34:51;;;;;;;7.90;6.40;;;;;;;9.79;100.00;98143.61;110132;1244;59759;-59
2023/10/05 01:37:31;;;;;;;10.90;7.70;;;;;;;9.77;100.00;98138.48;110190;1245;59743;-59
2023/10/05 01:42:55;;;;;;;9.10;7.00;;;;;;;9.72;100.00;98137.92;110167;1244;69277;-60
2023/10/05 01:45:29;;;;;;;9.50;6.90;;;;;;;9.72;100.00;98138.28;110136;1244;68230;-59
2023/10/05 01:48:07;;;;;;;34.30;18.10;;;;;;;9.69;100.00;98141.89;110093;1243;59729;-59
2023/10/05 01:50:40;;;;;;;45.10;26.50;;;;;;;9.68;100.00;98138.67;110115;1247;59688;-59
2023/10/05 01:53:17;;;;;;;45.90;24.90;;;;;;;9.66;100.00;98140.02;110160;1245;71812;-59
2023/10/05 01:55:50;;;;;;;32.20;20.30;;;;;;;9.61;100.00;98136.63;110088;1246;69108;-59
2023/10/05 01:58:27;;;;;;;22.80;14.70;;;;;;;9.55;100.00;98136.77;110162;1245;68709;-62
2023/10/05 02:01:03;;;;;;;18.40;11.20;;;;;;;9.49;100.00;98134.90;110144;1246;59611;-59
2023/10/05 02:03:36;;;;;;;17.50;10.80;;;;;;;9.44;100.00;98138.46;110134;1248;59651;-60
2023/10/05 02:06:13;;;;;;;15.20;8.80;;;;;;;9.40;100.00;98140.23;110161;1242;70597;-60
2023/10/05 02:08:47;;;;;;;12.50;9.00;;;;;;;9.37;100.00;98142.67;110135;1244;69124;-60
2023/10/05 02:11:24;;;;;;;16.90;9.60;;;;;;;9.35;100.00;98144.38;110157;1245;70312;-60
2023/10/05 02:14:03;;;;;;;15.90;10.10;;;;;;;9.33;100.00;98145.03;110124;1244;59736;-60
2023/10/05 02:16:37;;;;;;;12.20;7.80;;;;;;;9.29;100.00;98147.85;110145;1243;59671;-60
2023/10/05 02:19:08;;;;;;;13.40;8.40;;;;;;;9.25;100.00;98142.66;110197;1244;71282;-60
2023/10/05 02:21:40;;;;;;;11.10;7.50;;;;;;;9.22;100.00;98138.88;110150;1244;68779;-60
2023/10/05 02:24:18;;;;;;;11.40;7.10;;;;;;;9.21;100.00;98142.05;110153;1245;69302;-60
2023/10/05 02:29:31;;;;;;;9.40;6.70;;;;;;;9.12;100.00;98155.20;110166;1244;59682;-60
2023/10/05 02:32:09;;;;;;;9.50;7.00;;;;;;;9.08;100.00;98152.80;110138;1243;70313;-59
2023/10/05 02:34:59;;;;;;;9.70;6.30;;;;;;;9.04;100.00;98148.33;110122;1243;69121;-59
2023/10/05 02:37:36;;;;;;;9.70;6.60;;;;;;;9.01;100.00;98147.81;110128;1244;69297;-60
2023/10/05 02:40:09;;;;;;;10.00;7.10;;;;;;;8.97;100.00;98149.96;110147;1244;59772;-60
2023/10/05 02:42:41;;;;;;;19.20;12.50;;;;;;;8.90;100.00;98148.95;110207;1241;59742;-59
2023/10/05 02:45:11;;;;;;;19.20;14.00;;;;;;;8.87;100.00;98144.94;110152;1241;71274;-59
2023/10/05 02:47:42;;;;;;;19.40;12.80;;;;;;;8.83;100.00;98145.36;110140;1241;68323;-59
2023/10/05 02:50:14;;;;;;;;;;;;;;;8.79;100.00;98149.20;110164;1245;69631;-59
2023/10/05 02:52:44;;;;;;;16.20;10.90;;;;;;;8.75;100.00;98149.40;110185;1243;59736;-60
2023/10/05 02:55:16;;;;;;;14.90;10.30;;;;;;;8.72;100.00;98148.55;110132;1242;59735;-60
2023/10/05 02:57:47;;;;;;;14.50;9.20;;;;;;;8.67;100.00;98150.50;110162;1241;71681;-60
2023/10/05 03:00:20;;;;;;;12.00;8.10;;;;;;;8.64;100.00;98151.21;110215;1245;69085;-59
2023/10/05 03:02:53;;;;;;;11.70;8.10;;;;;;;8.60;100.00;98148.48;110138;1243;68562;-60
2023/10/05 03:05:27;;;;;;;10.40;8.60;;;;;;;8.55;100.00;98143.17;110148;1243;59686;-59
2023/10/05 03:07:59;;;;;;;13.80;8.20;;;;;;;8.53;100.00;98144.84;110138;1243;59747;-59
2023/10/05 03:10:29;;;;;;;10.40;8.00;;;;;;;8.49;100.00;98142.28;110159;1243;70698;-59
2023/10/05 03:13:03;;;;;;;10.80;7.60;;;;;;;8.47;100.00;98145.14;110155;1245;68569;-59
2023/10/05 03:15:37;;;;;;;14.20;9.40;;;;;;;8.45;100.00;98142.48;110169;1245;69127;-59
2023/10/05 03:18:15;;;;;;;11.90;8.40;;;;;;;8.41;100.00;98147.91;110120;1243;59708;-59
2023/10/05 03:20:51;;;;;;;12.50;8.60;;;;;;;8.35;100.00;98152.73;110157;1243;59686;-60
2023/10/05 03:23:23;;;;;;;19.50;11.60;;;;;;;8.28;100.00;98156.18;110135;1243;71422;-61
2023/10/05 03:25:54;;;;;;;25.60;12.20;;;;;;;8.24;100.00;98157.30;110186;1243;69264;-58
2023/10/05 03:28:27;;;;;;;9.20;8.20;;;;;;;8.22;100.00;98155.11;110086;1243;69348;-59
2023/10/05 03:31:06;;;;;;;7.50;6.60;;;;;;;8.21;100.00;98152.06;110158;1243;59756;-60
2023/10/05 03:33:39;;;;;;;7.50;6.70;;;;;;;8.24;100.00;98154.88;110173;1244;59702;-61
2023/10/05 03:36:16;;;;;;;20.80;12.50;;;;;;;8.26;100.00;98150.39;110148;1245;71337;-59
2023/10/05 03:38:56;;;;;;;10.80;7.90;;;;;;;8.26;100.00;98146.59;110152;1244;68303;-60
2023/10/05 03:41:27;;;;;;;12.30;8.00;;;;;;;8.28;100.00;98149.79;110130;1241;69702;-59
2023/10/05 03:44:03;;;;;;;9.70;8.70;;;;;;;8.28;100.00;98145.75;110133;1245;59670;-60
2023/10/05 03:46:35;;;;;;;16.90;9.30;;;;;;;8.30;100.00;98145.15;110180;1246;59672;-58
2023/10/05 03:49:06;;;;;;;14.20;8.70;;;;;;;8.34;100.00;98146.88;110132;1244;70466;-59
2023/10/05 03:51:43;;;;;;;10.20;7.30;;;;;;;8.36;100.00;98146.92;110152;1246;69107;-59
2023/10/05 03:54:14;;;;;;;10.30;7.30;;;;;;;8.39;100.00;98153.94;110128;1243;69290;-59
2023/10/05 03:57:04;;;;;;;12.70;8.90;;;;;;;8.41;100.00;98161.97;110118;1244;59764;-59
2023/10/05 03:59:36;;;;;;;43.10;15.00;;;;;;;8.45;100.00;98164.91;110166;1242;59675;-61
2023/10/05 04:02:06;;;;;;;36.30;13.40;;;;;;;8.44;100.00;98169.64;110154;1243;71355;-59
2023/10/05 04:04:37;;;;;;;12.10;9.60;;;;;;;8.39;100.00;98175.61;110130;1243;69844;-59
2023/10/05 04:07:09;;;;;;;16.60;9.40;;;;;;;8.39;100.00;98176.99;110135;1245;69725;-59
2023/10/05 04:09:39;;;;;;;15.70;9.40;;;;;;;8.42;100.00;98182.44;110178;1246;59743;-58
2023/10/05 04:12:11;;;;;;;13.80;9.90;;;;;;;8.42;100.00;98185.20;110153;1245;59707;-60
2023/10/05 04:14:41;;;;;;;34.00;12.80;;;;;;;8.28;100.00;98189.38;110153;1243;72015;-59
2023/10/05 04:17:12;;;;;;;11.50;8.90;;;;;;;8.19;100.00;98187.91;110173;1241;68788;-59
2023/10/05 04:19:41;;;;;;;16.70;10.20;;;;;;;8.10;100.00;98192.55;110156;1252;68594;-59
2023/10/05 04:22:14;;;;;;;10.10;7.40;;;;;;;8.08;100.00;98184.98;110153;1245;59693;-60
2023/10/05 04:24:45;;;;;;;10.40;7.60;;;;;;;8.14;100.00;98180.70;110168;1245;59689;-60
2023/10/05 04:27:18;;;;;;;10.50;7.00;;;;;;;8.19;100.00;98183.41;110177;1246;71977;-60
2023/10/05 04:29:49;;;;;;;7.50;6.30;;;;;;;8.26;100.00;98184.97;110162;1242;69290;-60
2023/10/05 04:32:20;;;;;;;10.70;8.00;;;;;;;8.31;100.00;98185.72;110113;1245;69226;-61
2023/10/05 04:34:51;;;;;;;8.10;7.00;;;;;;;8.40;100.00;98187.92;110117;1244;59695;-61
2023/10/05 04:37:21;;;;;;;8.10;6.00;;;;;;;8.48;100.00;98188.35;110118;1245;59734;-59
2023/10/05 04:39:50;;;;;;;15.60;10.90;;;;;;;8.55;100.00;98192.02;110153;1246;71375;-59
2023/10/05 04:42:21;;;;;;;7.40;6.00;;;;;;;8.62;100.00;98190.09;110131;1246;69608;-60
2023/10/05 04:44:52;;;;;;;9.20;6.70;;;;;;;8.71;100.00;98190.13;110133;1244;69304;-59
2023/10/05 04:47:22;;;;;;;10.70;7.00;;;;;;;8.80;100.00;98189.27;110143;1242;59756;-60
2023/10/05 04:49:53;;;;;;;11.40;7.90;;;;;;;8.87;100.00;98191.00;110058;1245;59682;-59
2023/10/05 04:52:23;;;;;;;9.20;6.50;;;;;;;8.95;100.00;98194.39;110088;1241;71304;-60
2023/10/05 04:54:57;;;;;;;10.20;7.10;;;;;;;9.05;100.00;98190.02;110126;1244;69151;-60
2023/10/05 04:57:39;;;;;;;10.60;7.30;;;;;;;9.11;100.00;98194.03;110141;1242;69293;-60
2023/10/05 05:03:05;;;;;;;8.80;6.80;;;;;;;9.29;100.00;98194.79;110144;1243;59623;-60
2023/10/05 05:05:53;;;;;;;12.20;8.50;;;;;;;9.41;100.00;98192.39;110132;1243;71878;-60
2023/10/05 05:08:22;;;;;;;13.00;10.40;;;;;;;9.51;100.00;98191.66;110113;1248;69200;-59
2023/10/05 05:10:52;;;;;;;10.30;8.10;;;;;;;9.61;100.00;98191.42;110125;1248;69851;-60
2023/10/05 05:13:27;;;;;;;10.70;7.80;;;;;;;9.73;100.00;98198.06;110133;1246;59700;-60
2023/10/05 05:15:57;;;;;;;14.40;9.60;;;;;;;9.78;100.00;98194.84;110134;1244;59683;-60
2023/10/05 05:18:27;;;;;;;12.70;10.30;;;;;;;9.83;100.00;98200.30;110131;1241;70690;-60
2023/10/05 05:20:56;;;;;;;17.70;13.00;;;;;;;9.89;100.00;98207.80;110054;1245;69704;-60
2023/10/05 05:23:25;;;;;;;18.80;11.80;;;;;;;9.93;100.00;98211.73;110139;1245;69254;-60
2023/10/05 05:25:54;;;;;;;13.50;10.90;;;;;;;9.98;100.00;98215.61;110139;1243;59671;-60
2023/10/05 05:28:24;;;;;;;19.30;13.10;;;;;;;10.04;100.00;98223.62;110128;1243;59686;-61
2023/10/05 05:30:54;;;;;;;14.80;9.60;;;;;;;10.09;100.00;98225.41;110142;1246;71317;-60
2023/10/05 05:33:23;;;;;;;18.10;12.60;;;;;;;10.17;100.00;98226.20;110124;1243;69829;-60
2023/10/05 05:35:54;;;;;;;18.00;12.10;;;;;;;10.23;100.00;98225.01;110141;1243;69288;-60
2023/10/05 05:38:23;;;;;;;15.00;9.40;;;;;;;10.29;100.00;98223.64;110152;1246;59756;-60
2023/10/05 05:40:53;;;;;;;14.90;9.20;;;;;;;10.35;100.00;98226.59;110133;1246;59751;-60
2023/10/05 05:43:22;;;;;;;10.40;8.00;;;;;;;10.41;100.00;98226.38;110101;1242;71393;-60
2023/10/05 05:45:52;;;;;;;12.40;8.50;;;;;;;10.49;100.00;98227.64;110133;1246;69074;-60
2023/10/05 05:48:21;;;;;;;15.60;10.00;;;;;;;10.54;100.00;98231.02;110146;1241;68394;-60
2023/10/05 05:50:53;;;;;;;15.00;9.10;;;;;;;10.59;100.00;98235.59;110137;1245;59760;-60
2023/10/05 05:53:22;;;;;;;17.20;9.80;;;;;;;10.67;100.00;98233.55;110138;1246;59773;-60
2023/10/05 05:55:55;;;;;;;15.40;9.60;;;;;;;10.72;100.00;98234.80;110100;1244;71954;-60
2023/10/05 05:58:25;;;;;;;19.40;10.20;;;;;;;10.78;100.00;98234.79;110124;1245;69835;-60
2023/10/05 06:00:57;;;;;;;15.90;8.90;;;;;;;10.84;100.00;98239.33;110066;1241;69286;-61
2023/10/05 06:03:27;;;;;;;12.40;8.80;;;;;;;10.91;100.00;98242.75;110137;1244;59690;-60
2023/10/05 06:05:57;;;;;;;15.00;9.80;;;;;;;10.95;100.00;98243.38;110132;1243;59667;-60
2023/10/05 06:08:26;;;;;;;13.70;8.50;;;;;;;11.00;100.00;98247.40;110138;1245;71413;-60
2023/10/05 06:10:56;;;;;;;14.70;10.10;;;;;;;11.08;100.00;98246.22;110168;1241;68597;-60
2023/10/05 06:13:26;;;;;;;27.20;17.10;;;;;;;11.17;100.00;98245.86;110158;1243;69946;-61
2023/10/05 06:15:55;;;;;;;;;;;;;;;11.20;100.00;98246.03;110134;1245;59714;-60
2023/10/05 06:18:25;;;;;;;18.70;12.60;;;;;;;11.22;100.00;98250.41;110161;1244;59766;-60
2023/10/05 06:20:54;;;;;;;17.90;12.00;;;;;;;11.20;100.00;98254.91;110132;1241;71961;-60
2023/10/05 06:23:23;;;;;;;18.90;12.80;;;;;;;11.30;100.00;98252.89;110145;1241;69038;-60
2023/10/05 06:25:53;;;;;;;20.30;14.10;;;;;;;11.44;100.00;98252.91;110166;1245;69315;-61
2023/10/05 06:28:22;;;;;;;18.00;12.30;;;;;;;11.55;100.00;98253.20;110150;1241;59720;-60
2023/10/05 06:30:53;;;;;;;23.90;14.70;;;;;;;11.65;100.00;98258.70;110151;1242;59747;-60
2023/10/05 06:33:24;;;;;;;15.90;11.70;;;;;;;11.74;100.00;98257.79;110163;1244;71769;-60
2023/10/05 06:35:54;;;;;;;13.20;9.70;;;;;;;11.93;100.00;98257.48;110143;1241;68456;-60
2023/10/05 06:38:23;;;;;;;12.60;8.70;;;;;;;12.18;100.00;98260.86;110126;1246;69596;-60
2023/10/05 06:40:53;;;;;;;13.00;8.90;;;;;;;12.45;100.00;98259.42;110123;1241;59715;-60
2023/10/05 06:43:22;;;;;;;14.00;10.30;;;;;;;12.76;100.00;98250.91;110171;1245;59739;-60
2023/10/05 06:45:51;;;;;;;12.90;10.30;;;;;;;13.12;100.00;98255.60;110134;1241;72022;-61
2023/10/05 06:48:20;;;;;;;14.30;10.40;;;;;;;13.45;100.00;98253.79;110110;1245;69797;-60
2023/10/05 06:50:50;;;;;;;12.10;9.40;;;;;;;13.65;100.00;98253.45;110129;1246;69625;-60
2023/10/05 06:53:19;;;;;;;;;;;;;;;13.67;100.00;98257.33;110166;1244;59826;-60
2023/10/05 06:55:49;;;;;;;15.60;12.20;;;;;;;13.55;100.00;98255.71;110169;1245;59749;-60
2023/10/05 06:58:22;;;;;;;13.40;10.70;;;;;;;13.76;100.00;98251.73;110129;1245;71905;-60
2023/10/05 07:00:52;;;;;;;;;;;;;;;13.94;100.00;98253.25;110139;1245;69362;-60
2023/10/05 07:03:21;;;;;;;;;;;;;;;13.99;100.00;98257.44;110120;1243;69855;-61
2023/10/05 07:05:51;;;;;;;12.20;9.10;;;;;;;14.02;100.00;98258.11;110130;1245;59717;-60
2023/10/05 07:08:20;;;;;;;10.70;8.50;;;;;;;14.12;100.00;98260.36;110120;1245;59681;-61
2023/10/05 07:10:49;;;;;;;11.60;9.40;;;;;;;14.16;100.00;98267.36;110137;1245;71813;-61
2023/10/05 07:13:22;;;;;;;10.20;8.20;;;;;;;14.15;100.00;98270.44;110172;1246;69257;-60
2023/10/05 07:15:52;;;;;;;9.80;8.00;;;;;;;14.27;100.00;98271.48;110137;1245;69245;-60
2023/10/05 07:18:21;;;;;;;13.00;11.30;;;;;;;14.29;100.00;98272.77;110138;1244;59737;-60
2023/10/05 07:20:51;;;;;;;11.40;8.70;;;;;;;14.33;100.00;98275.83;110115;1241;59814;-60
2023/10/05 07:23:20;;;;;;;12.60;9.90;;;;;;;14.43;100.00;98277.52;110089;1245;71797;-60
2023/10/05 07:25:50;;;;;;;11.90;9.50;;;;;;;14.46;100.00;98279.21;110099;1241;68422;-60
2023/10/05 07:28:20;;;;;;;;;;;;;;;14.59;100.00;98283.01;110100;1245;69351;-60
2023/10/05 07:30:51;;;;;;;10.50;8.40;;;;;;;14.66;100.00;98277.39;110123;1244;59679;-60
2023/10/05 07:33:21;;;;;;;10.20;7.90;;;;;;;14.70;100.00;98277.20;110164;1243;59637;-61
2023/10/05 07:35:50;;;;;;;13.70;10.90;;;;;;;14.77;100.00;98283.53;110148;1245;71315;-61
2023/10/05 07:38:20;;;;;;;12.60;10.00;;;;;;;14.72;100.00;98285.70;110224;1241;69237;-61
2023/10/05 07:40:49;;;;;;;15.80;13.70;;;;;;;14.73;100.00;98285.72;110171;1245;69420;-61
2023/10/05 07:43:19;;;;;;;13.00;10.70;;;;;;;14.66;100.00;98290.17;110171;1245;59705;-60
2023/10/05 07:45:48;;;;;;;14.30;11.90;;;;;;;14.63;100.00;98291.42;110158;1244;59671;-61
2023/10/05 07:48:19;;;;;;;17.00;13.30;;;;;;;14.62;100.00;98294.86;110206;1244;72291;-62
2023/10/05 07:50:48;;;;;;;13.10;11.50;;;;;;;14.62;100.00;98294.52;110134;1245;69805;-60
2023/10/05 07:53:19;;;;;;;;;;;;;;;14.60;100.00;98292.02;110157;1244;69871;-62
2023/10/05 07:55:49;;;;;;;11.40;8.50;;;;;;;14.63;100.00;98290.05;110099;1241;59753;-62
2023/10/05 07:58:19;;;;;;;12.80;9.70;;;;;;;14.93;100.00;98290.94;110138;1241;59767;-61
2023/10/05 08:00:48;;;;;;;13.30;11.40;;;;;;;14.98;100.00;98287.73;110100;1241;70870;-62
2023/10/05 08:03:17;;;;;;;14.00;11.20;;;;;;;15.13;100.00;98285.48;110135;1245;69887;-62
2023/10/05 08:05:48;;;;;;;12.00;10.20;;;;;;;15.31;100.00;98284.11;110140;1245;69690;-61
2023/10/05 08:08:18;;;;;;;13.90;11.20;;;;;;;15.65;100.00;98281.29;110171;1244;59737;-61
2023/10/05 08:10:47;;;;;;;12.90;10.10;;;;;;;15.86;100.00;98278.56;110128;1244;59691;-61
2023/10/05 08:13:16;;;;;;;11.10;9.00;;;;;;;15.96;100.00;98278.48;110107;1245;71408;-61
2023/10/05 08:15:46;;;;;;;10.30;8.30;;;;;;;16.37;100.00;98275.42;110125;1245;69257;-61
2023/10/05 08:18:14;;;;;;;10.50;7.80;;;;;;;16.78;97.57;98276.64;110062;1245;69335;-61
2023/10/05 08:20:43;;;;;;;10.40;9.30;;;;;;;17.15;93.82;98276.66;110116;1245;59755;-62
2023/10/05 08:23:13;;;;;;;11.60;9.10;;;;;;;17.68;92.66;98275.33;110134;1245;59715;-62
2023/10/05 08:25:42;;;;;;;11.40;8.80;;;;;;;18.27;90.07;98271.14;110132;1242;69538;-60
2023/10/05 08:28:12;;;;;;;10.00;8.50;;;;;;;18.93;85.02;98272.64;110153;1246;69221;-60
2023/10/05 08:31:28;;;;;;;10.60;8.80;;;;;;;19.66;84.33;98265.96;110156;1245;69263;-60
2023/10/05 08:33:35;;;;;;;12.00;9.10;;;;;;;20.36;78.80;98261.23;110066;1244;59750;-60
2023/10/05 08:36:11;;;;;;;10.80;9.30;;;;;;;21.10;76.49;98262.21;110151;1244;59602;-60
2023/10/05 08:38:40;;;;;;;9.70;8.40;;;;;;;21.64;73.98;98255.91;110197;1245;72115;-60
2023/10/05 08:41:12;;;;;;;9.60;8.20;;;;;;;22.40;72.55;98254.80;110122;1244;69362;-60
2023/10/05 08:43:41;;;;;;;10.20;8.80;;;;;;;22.89;68.06;98254.94;110146;1241;69919;-60
2023/10/05 08:46:12;;;;;;;;;;;;;;;23.46;62.43;98250.73;110125;1245;59757;-60
2023/10/05 08:48:42;;;;;;;10.70;8.10;;;;;;;23.65;59.19;98250.41;110113;1244;59669;-61
2023/10/05 08:51:12;;;;;;;7.60;6.60;;;;;;;24.04;61.74;98241.31;110138;1245;71996;-62
2023/10/05 08:53:50;;;;;;;10.70;8.40;;;;;;;24.58;58.55;98235.55;110117;1244;69461;-62
2023/10/05 08:56:20;;;;;;;8.40;7.30;;;;;;;25.04;56.33;98235.31;110158;1244;69889;-60
2023/10/05 08:58:52;;;;;;;9.00;7.20;;;;;;;24.70;54.58;98231.20;110132;1245;59750;-61
2023/10/05 09:01:35;;;;;;;8.00;6.90;;;;;;;25.13;52.92;98229.25;110135;1244;59624;-61
2023/10/05 09:04:11;;;;;;;8.50;7.10;;;;;;;25.29;52.72;98226.98;110153;1244;71386;-61
2023/10/05 09:07:00;;;;;;;7.80;6.50;;;;;;;25.23;51.09;98223.52;110154;1241;69835;-61
2023/10/05 09:12:34;;;;;;;7.50;6.20;;;;;;;26.87;50.57;98208.77;110098;1244;59759;-61
2023/10/05 09:15:21;;;;;;;6.70;6.00;;;;;;;27.56;49.09;98202.31;110155;1244;59633;-61
2023/10/05 09:17:58;;;;;;;8.20;6.20;;;;;;;27.50;43.60;98199.02;110145;1241;71464;-61
2023/10/05 09:20:32;;;;;;;7.90;6.50;;;;;;;27.37;43.77;98197.48;110083;1245;68720;-60
2023/10/05 09:23:07;;;;;;;8.50;6.30;;;;;;;27.18;43.15;98195.42;110126;1244;69270;-60
2023/10/05 09:25:47;;;;;;;11.30;7.10;;;;;;;27.02;43.89;98192.03;110138;1245;59689;-60
2023/10/05 09:28:52;;;;;;;9.70;8.00;;;;;;;27.71;43.65;98193.36;110106;1244;59646;-60
2023/10/05 09:31:36;;;;;;;6.70;6.00;;;;;;;27.72;42.21;98190.96;110136;1244;70620;-60
2023/10/05 09:34:06;;;;;;;8.30;5.80;;;;;;;27.01;41.27;98190.50;110165;1243;69639;-61
2023/10/05 09:36:37;;;;;;;7.60;6.20;;;;;;;27.81;43.31;98185.11;110136;1244;69872;-62
2023/10/05 09:39:10;;;;;;;7.30;5.60;;;;;;;28.36;40.38;98181.04;110134;1246;59711;-60
2023/10/05 09:41:39;;;;;;;7.50;6.70;;;;;;;28.19;40.40;98182.34;110142;1244;59754;-61
2023/10/05 09:44:15;;;;;;;7.70;5.40;;;;;;;28.34;39.46;98180.38;110121;1245;72019;-60
2023/10/05 09:46:46;;;;;;;8.90;7.80;;;;;;;26.99;40.63;98180.33;110103;1243;68095;-60
2023/10/05 09:49:21;;;;;;;8.00;6.40;;;;;;;26.64;41.72;98176.86;110138;1241;69553;-60
2023/10/05 09:51:50;;;;;;;10.20;6.80;;;;;;;26.13;42.98;98168.23;110128;1245;59684;-60
2023/10/05 09:54:22;;;;;;;8.80;7.00;;;;;;;26.60;42.29;98165.73;110099;1244;59726;-60
2023/10/05 09:56:52;;;;;;;10.00;6.60;;;;;;;26.66;42.14;98164.13;110086;1243;71911;-60
2023/10/05 09:59:25;;;;;;;7.80;6.40;;;;;;;27.63;41.21;98155.62;110163;1243;69843;-60
2023/10/05 10:01:57;;;;;;;8.70;6.30;;;;;;;27.73;40.68;98144.80;110101;1243;68551;-61
2023/10/05 10:04:38;;;;;;;8.10;6.00;;;;;;;28.31;39.83;98137.73;110117;1244;59710;-61
2023/10/05 10:07:22;;;;;;;10.60;6.80;;;;;;;28.93;38.88;98133.15;110142;1241;59688;-60
2023/10/05 10:09:55;;;;;;;8.00;5.90;;;;;;;27.83;40.04;98124.68;110095;1244;71968;-61
2023/10/05 10:12:33;;;;;;;6.50;4.80;;;;;;;29.00;39.09;98124.36;110101;1244;69189;-61
2023/10/05 10:15:05;;;;;;;6.70;5.10;;;;;;;29.16;37.68;98121.74;110144;1243;68596;-61
2023/10/05 10:17:36;;;;;;;7.50;5.50;;;;;;;30.15;37.43;98119.55;110132;1243;59765;-62
2023/10/05 10:20:18;;;;;;;6.10;4.00;;;;;;;30.55;34.84;98121.80;110204;1241;59754;-60
2023/10/05 10:22:55;;;;;;;7.50;5.00;;;;;;;30.75;33.18;98116.54;110196;1244;71990;-59
2023/10/05 10:25:38;;;;;;;6.30;4.80;;;;;;;30.54;32.83;98108.72;110177;1241;69373;-60
2023/10/05 10:28:20;;;;;;;5.90;4.60;;;;;;;30.77;32.60;98109.55;110135;1241;69896;-60
2023/10/05 10:31:13;;;;;;;6.70;4.60;;;;;;;30.81;32.48;98101.54;110161;1241;59716;-60
2023/10/05 10:33:43;;;;;;;7.60;5.40;;;;;;;31.12;31.69;98098.31;110180;1244;59634;-61
2023/10/05 10:36:23;;;;;;;7.30;5.20;;;;;;;30.35;31.67;98098.31;110122;1241;70896;-61
2023/10/05 10:38:52;;;;;;;6.50;5.10;;;;;;;30.29;32.54;98095.89;110121;1241;69271;-62
2023/10/05 10:41:22;;;;;;;6.50;4.50;;;;;;;30.44;32.50;98092.59;110151;1244;69699;-60
2023/10/05 10:43:55;;;;;;;6.60;4.40;;;;;;;30.27;32.06;98089.21;110156;1243;60031;-61
2023/10/05 10:46:34;;;;;;;5.70;3.90;;;;;;;29.87;32.20;98078.98;110170;1241;59636;-61
2023/10/05 10:49:07;;;;;;;5.10;4.10;;;;;;;30.17;30.70;98084.23;110143;1241;71525;-63
2023/10/05 10:51:38;;;;;;;6.20;4.60;;;;;;;29.56;31.14;98076.61;110183;1241;69272;-61
2023/10/05 10:54:12;;;;;;;5.10;4.20;;;;;;;28.38;32.90;98073.91;110160;1244;68795;-61
2023/10/05 10:56:43;;;;;;;5.00;3.90;;;;;;;28.58;33.46;98067.67;110154;1244;59763;-60
2023/10/05 10:59:13;;;;;;;5.40;4.10;;;;;;;28.76;33.58;98060.84;110103;1244;59812;-61
2023/10/05 11:01:44;;;;;;;5.90;4.50;;;;;;;29.80;33.10;98054.36;110153;1244;71958;-61
2023/10/05 11:04:23;;;;;;;6.80;5.20;;;;;;;30.50;31.60;98055.40;110169;1243;69840;-60
2023/10/05 11:07:05;;;;;;;8.10;5.30;;;;;;;30.59;31.63;98050.08;110127;1243;69251;-59
2023/10/05 11:09:48;;;;;;;6.10;4.30;;;;;;;30.58;31.54;98043.20;110162;1243;59700;-61
2023/10/05 11:12:22;;;;;;;6.60;5.00;;;;;;;30.57;32.44;98043.44;110151;1244;59670;-62
2023/10/05 11:15:11;;;;;;;6.10;5.40;;;;;;;31.26;31.58;98030.88;110091;1243;71457;-61
2023/10/05 11:17:45;;;;;;;6.90;5.40;;;;;;;30.97;31.32;98032.04;110126;1244;69108;-62
2023/10/05 11:20:25;;;;;;;6.60;4.60;;;;;;;30.57;31.61;98026.86;110085;1245;69193;-61
2023/10/05 11:22:55;;;;;;;6.80;5.60;;;;;;;30.46;31.86;98026.11;110108;1245;59758;-61
2023/10/05 11:25:32;;;;;;;7.70;5.50;;;;;;;30.60;31.57;98019.40;110145;1243;60130;-62
2023/10/05 11:28:12;;;;;;;9.10;7.00;;;;;;;30.73;31.99;98019.23;110111;1241;71943;-61
2023/10/05 11:30:41;;;;;;;8.00;6.20;;;;;;;31.51;31.23;98008.07;110165;1242;69342;-60
2023/10/05 11:33:37;;;;;;;7.60;6.20;;;;;;;31.02;31.33;98009.36;110114;1243;69684;-60
2023/10/05 11:36:33;;;;;;;7.70;6.20;;;;;;;29.10;33.66;98011.82;110118;1245;59711;-60
2023/10/05 11:39:05;;;;;;;6.50;5.30;;;;;;;29.39;33.87;98007.31;110103;1241;59740;-60
2023/10/05 11:41:35;;;;;;;9.00;6.50;;;;;;;29.49;33.31;98005.26;110132;1241;71988;-60
2023/10/05 11:44:11;;;;;;;7.70;6.30;;;;;;;29.79;32.91;98003.59;110124;1244;69419;-62
2023/10/05 11:46:48;;;;;;;8.00;6.50;;;;;;;29.30;33.06;98006.13;110116;1241;68345;-60
2023/10/05 11:49:17;;;;;;;5.90;5.10;;;;;;;28.04;35.34;98002.95;110176;1241;59761;-61
2023/10/05 11:51:56;;;;;;;5.70;4.80;;;;;;;29.10;34.49;97994.02;110108;1244;59663;-61
2023/10/05 11:54:30;;;;;;;7.60;5.90;;;;;;;28.97;34.45;97994.02;110136;1243;70937;-61
2023/10/05 11:57:00;;;;;;;8.60;5.50;;;;;;;29.36;33.54;97988.53;110117;1241;69414;-61
2023/10/05 11:59:35;;;;;;;8.40;6.10;;;;;;;29.30;34.00;97984.88;110116;1241;69640;-62
2023/10/05 12:02:08;;;;;;;7.30;5.20;;;;;;;29.58;33.23;97987.86;110133;1244;59776;-61
2023/10/05 12:04:39;;;;;;;6.50;5.20;;;;;;;29.56;32.83;97980.20;110162;1245;59745;-61
2023/10/05 12:07:12;;;;;;;6.70;5.10;;;;;;;29.08;33.34;97971.39;110087;1241;71384;-61
2023/10/05 12:09:45;;;;;;;7.40;5.30;;;;;;;28.47;34.34;97965.52;110150;1241;69291;-61
2023/10/05 12:12:14;;;;;;;6.20;4.70;;;;;;;28.48;34.66;97964.81;110102;1241;69091;-61